Time;durP1;ratioP1;P1;durP2;ratioP2;P2;SDS_P1;SDS_P2;PMS_P1;PMS_P2;Temp;Humidity;BMP_temperature;BMP_pressure;BME280_temperature;BME280_humidity;BME280_pressure;Samples;Min_cycle;Max_cycle;Signal;HPM_P1;HPM_P2
2023/01/28 00:00:25;;;;;;;8.77;6.88;;;2.10;99.90;;;-144.05;66.58;125687.94;4963786;28;20413;-85
2023/01/28 00:03:40;;;;;;;11.15;7.65;;;2.00;99.90;;;-144.05;67.05;125687.94;4997846;28;20041;-83
2023/01/28 00:06:17;;;;;;;10.32;7.75;;;2.00;99.90;;;-144.05;67.39;125687.94;5031723;28;20039;-86
2023/01/28 00:08:56;;;;;;;8.32;6.45;;;2.00;99.90;;;-144.05;66.66;125687.94;5015325;28;20472;-82
2023/01/28 00:11:30;;;;;;;10.32;7.72;;;1.90;99.90;;;-144.05;66.53;125687.94;5015812;28;20025;-84
2023/01/28 00:14:46;;;;;;;11.80;7.60;;;2.00;99.90;;;-144.05;66.53;125687.94;5032401;28;20033;-86
2023/01/28 00:17:56;;;;;;;10.73;7.70;;;1.90;99.90;;;-144.05;66.26;125687.94;5033454;28;20036;-85
2023/01/28 00:20:28;;;;;;;11.40;8.77;;;1.90;99.90;;;-144.05;66.43;125687.94;5032817;28;20026;-84
2023/01/28 00:22:56;;;;;;;10.13;8.23;;;2.00;99.90;;;-144.05;66.61;125687.94;5040294;28;20025;-79
2023/01/28 00:25:49;;;;;;;13.10;9.00;;;2.00;99.90;;;-144.05;66.64;125687.94;5006630;28;20053;-87
2023/01/28 00:28:33;;;;;;;11.57;8.13;;;1.90;99.90;;;-144.05;66.43;125687.94;5015761;28;20029;-87
2023/01/28 00:31:33;;;;;;;10.77;8.15;;;2.00;99.90;;;-144.05;65.85;125687.94;5015398;28;20044;-84
2023/01/28 00:34:40;;;;;;;8.65;7.50;;;2.00;99.90;;;-144.05;65.78;125687.94;5015025;28;20567;-84
2023/01/28 00:37:07;;;;;;;11.75;7.63;;;2.00;99.90;;;-144.05;65.79;125687.94;5031685;28;20328;-84
2023/01/28 00:39:33;;;;;;;11.60;8.13;;;2.00;99.90;;;-144.05;65.67;125687.94;5014930;28;20390;-84
2023/01/28 00:42:03;;;;;;;9.73;8.48;;;2.00;99.90;;;-144.05;66.04;125687.94;5014793;28;20075;-84
2023/01/28 00:44:35;;;;;;;8.85;7.95;;;1.90;99.90;;;-144.05;66.14;125687.94;5031730;28;20033;-86
2023/01/28 00:47:12;;;;;;;11.95;9.38;;;2.00;99.90;;;-144.05;66.41;125687.94;5015041;28;20040;-84
2023/01/28 00:50:07;;;;;;;11.13;8.82;;;2.00;99.90;;;-144.05;66.80;125687.94;5031304;28;20029;-81
2023/01/28 00:52:43;;;;;;;11.55;8.20;;;1.90;99.90;;;-144.05;66.33;125687.94;5014968;28;20037;-85
2023/01/28 01:00:24;;;;;;;11.75;8.10;;;1.90;99.90;;;-144.05;66.23;125687.94;4913663;29;20073;-85
2023/01/28 01:03:37;;;;;;;11.27;7.90;;;1.90;99.90;;;-144.05;66.43;125687.94;4947215;28;20477;-86
2023/01/28 01:06:08;;;;;;;10.60;7.15;;;1.90;99.90;;;-144.05;65.81;125687.94;4990108;28;20514;-84
2023/01/28 01:08:41;;;;;;;11.73;7.53;;;1.90;99.90;;;-144.05;65.72;125687.94;5003372;28;20041;-85
2023/01/28 01:11:14;;;;;;;8.98;7.32;;;1.90;99.90;;;-144.05;66.06;125687.94;5014333;28;20187;-84
2023/01/28 01:14:05;;;;;;;9.65;7.32;;;1.90;99.90;;;-144.05;66.25;125687.94;5014943;28;20122;-84
2023/01/28 01:17:13;;;;;;;;;;;;;;;;;;;;;
2023/01/28 01:20:37;;;;;;;;;;;;;;;;;;;;;
2023/01/28 01:23:04;;;;;;;12.18;7.57;;;1.90;99.90;;;-144.05;65.41;125687.94;5026642;28;20037;-84
2023/01/28 01:25:30;;;;;;;10.93;7.60;;;1.90;99.90;;;-144.05;64.94;125687.94;5014448;28;20042;-84
2023/01/28 01:28:06;;;;;;;12.07;7.68;;;1.90;99.90;;;-144.05;64.74;125687.94;5014016;28;20132;-77
2023/01/28 01:30:43;;;;;;;9.05;7.38;;;1.90;99.90;;;-144.05;65.04;125687.94;5014252;28;20483;-84
2023/01/28 01:33:20;;;;;;;12.98;8.60;;;1.90;99.90;;;-144.05;65.19;125687.94;5014250;28;20040;-85
2023/01/28 01:36:45;;;;;;;10.43;7.65;;;1.90;99.90;;;-144.05;64.67;125687.94;4999205;28;20049;-85
2023/01/28 01:39:17;;;;;;;10.40;7.88;;;1.80;99.90;;;-144.05;64.68;125687.94;5014011;28;20038;-84
2023/01/28 01:41:56;;;;;;;11.20;7.05;;;1.80;99.90;;;-144.05;64.65;125687.94;5014297;28;20025;-86
2023/01/28 01:45:13;;;;;;;11.15;6.97;;;1.80;99.90;;;-144.05;64.73;125687.94;5013524;28;20431;-84
2023/01/28 01:48:31;;;;;;;9.85;7.53;;;1.80;99.90;;;-144.05;64.89;125687.94;5014087;28;20124;-83
2023/01/28 01:51:45;;;;;;;9.32;6.45;;;1.70;99.90;;;-144.05;64.87;125687.94;5013799;28;20250;-84
2023/01/28 01:54:51;;;;;;;11.57;6.88;;;1.80;99.90;;;-144.05;65.01;125687.94;5004049;28;20112;-85
2023/01/28 02:06:11;;;;;;;7.97;6.88;;;1.80;99.90;;;-144.05;64.14;125687.94;4969744;28;20045;-83
2023/01/28 02:09:14;;;;;;;9.48;6.90;;;1.70;99.90;;;-144.05;63.96;125687.94;4988740;28;20342;-86
2023/01/28 02:11:50;;;;;;;8.80;7.05;;;1.70;99.90;;;-144.05;64.04;125687.94;5025171;28;20124;-84
2023/01/28 02:14:29;;;;;;;9.23;6.05;;;1.70;99.90;;;-144.05;63.86;125687.94;5013891;28;20029;-84
2023/01/28 02:21:43;;;;;;;11.98;7.28;;;1.70;99.90;;;-144.05;64.24;125687.94;5036385;28;20033;-78
2023/01/28 02:24:55;;;;;;;10.95;7.20;;;1.70;99.90;;;-144.05;63.87;125687.94;5025014;28;20056;-85
2023/01/28 02:28:16;;;;;;;12.45;7.57;;;1.70;99.90;;;-144.05;63.94;125687.94;5030142;28;20022;-83
2023/01/28 02:31:07;;;;;;;10.13;7.82;;;1.70;99.90;;;-144.05;64.13;125687.94;5013676;28;20064;-85
2023/01/28 02:34:08;;;;;;;9.57;7.40;;;1.70;99.90;;;-144.05;63.96;125687.94;5013747;28;20113;-84
2023/01/28 02:37:34;;;;;;;8.82;6.65;;;1.70;99.90;;;-144.05;64.35;125687.94;5029754;28;20032;-84
2023/01/28 02:41:01;;;;;;;10.10;7.38;;;1.80;99.90;;;-144.05;64.14;125687.94;4954345;28;20109;-84
2023/01/28 02:43:55;;;;;;;11.40;8.40;;;1.70;99.90;;;-144.05;63.92;125687.94;4954108;28;20063;-84
2023/01/28 02:49:45;;;;;;;10.40;7.60;;;1.60;99.90;;;-144.05;64.21;125687.94;5030755;28;20067;-85
2023/01/28 02:53:42;;;;;;;8.93;7.13;;;1.70;99.90;;;-144.05;63.68;125687.94;5013275;28;20033;-87
2023/01/28 02:56:36;;;;;;;11.85;7.22;;;1.70;99.90;;;-144.05;63.83;125687.94;5018548;28;20124;-87
2023/01/28 03:00:34;;;;;;;10.18;7.20;;;1.60;99.90;;;-144.05;63.92;125687.94;5039554;28;20037;-84
2023/01/28 03:07:59;;;;;;;;;;;;;;;;;;;;;
2023/01/28 03:10:52;;;;;;;;;;;;;;;;;;;;;
2023/01/28 03:37:36;;;;;;;;;;;1.40;99.90;;;-144.05;63.00;125687.94;5034528;28;20511;-84
2023/01/28 03:40:06;;;;;;;13.77;8.90;;;1.40;99.90;;;-144.05;63.09;125687.94;5032555;28;20011;-85
2023/01/28 03:42:32;;;;;;;18.80;10.13;;;1.40;99.90;;;-144.05;62.39;125687.94;5016127;28;20034;-86
2023/01/28 03:45:02;;;;;;;14.45;9.88;;;1.40;99.90;;;-144.05;62.33;125687.94;5016394;28;20032;-84
2023/01/28 03:47:31;;;;;;;15.35;9.77;;;1.50;99.90;;;-144.05;62.47;125687.94;5016369;28;20022;-84
2023/01/28 03:50:01;;;;;;;15.85;11.70;;;1.50;99.90;;;-144.05;62.75;125687.94;5016160;28;20481;-85
2023/01/28 03:52:32;;;;;;;18.60;13.15;;;1.50;99.90;;;-144.05;62.48;125687.94;5016618;28;20260;-86
2023/01/28 03:54:59;;;;;;;17.42;11.00;;;1.50;99.90;;;-144.05;62.51;125687.94;5032760;28;20449;-85
2023/01/28 03:57:33;;;;;;;15.73;10.73;;;1.50;99.90;;;-144.05;61.93;125687.94;5016220;28;20029;-83
2023/01/28 04:00:02;;;;;;;17.10;11.77;;;1.50;99.90;;;-144.05;62.21;125687.94;5015947;28;20033;-89
2023/01/28 04:02:31;;;;;;;16.63;11.65;;;1.50;99.90;;;-144.05;62.26;125687.94;5016283;28;20373;-85
2023/01/28 04:04:57;;;;;;;12.90;10.00;;;1.50;99.90;;;-144.05;61.69;125687.94;5032427;28;20033;-84
2023/01/28 04:07:23;;;;;;;11.25;8.23;;;1.50;99.90;;;-144.05;61.22;125687.94;5033523;28;20026;-85
2023/01/28 04:09:49;;;;;;;11.63;8.48;;;1.50;99.90;;;-144.05;61.52;125687.94;5033691;28;20022;-86
2023/01/28 04:12:15;;;;;;;12.63;8.70;;;1.50;99.90;;;-144.05;61.82;125687.94;5016446;28;20040;-84
2023/01/28 04:14:41;;;;;;;14.82;9.60;;;1.40;99.90;;;-144.05;61.95;125687.94;5016410;28;20052;-86
2023/01/28 04:17:09;;;;;;;12.70;10.13;;;1.40;99.90;;;-144.05;62.11;125687.94;5053179;28;20049;-80
2023/01/28 04:19:39;;;;;;;17.00;9.65;;;1.50;99.90;;;-144.05;61.49;125687.94;5029286;28;20037;-86
2023/01/28 04:22:10;;;;;;;12.23;8.98;;;1.40;99.90;;;-144.05;60.92;125687.94;5034654;28;20477;-82
2023/01/28 04:24:37;;;;;;;10.95;8.82;;;1.50;99.90;;;-144.05;60.83;125687.94;5018347;28;20393;-84
2023/01/28 04:27:05;;;;;;;12.35;9.70;;;1.40;99.90;;;-144.05;61.18;125687.94;5018458;28;20371;-82
2023/01/28 04:30:14;;;;;;;12.82;8.52;;;1.30;99.90;;;-144.05;60.71;125687.94;5019860;28;20112;-84
2023/01/28 04:32:40;;;;;;;11.15;9.05;;;1.30;99.90;;;-144.05;60.74;125687.94;4956472;28;20068;-85
2023/01/28 04:35:09;;;;;;;12.32;9.38;;;1.40;99.90;;;-144.05;60.57;125687.94;5006927;28;20045;-82
2023/01/28 04:37:40;;;;;;;13.27;9.60;;;1.30;99.90;;;-144.05;60.25;125687.94;5032563;28;20037;-81
2023/01/28 04:40:12;;;;;;;12.90;9.43;;;1.30;99.90;;;-144.05;60.39;125687.94;5033307;28;20065;-84
2023/01/28 04:42:58;;;;;;;12.07;8.52;;;1.30;99.90;;;-144.05;60.56;125687.94;5034674;28;20130;-84
2023/01/28 04:45:35;;;;;;;11.32;8.55;;;1.30;99.90;;;-144.05;60.42;125687.94;5016739;28;20565;-86
2023/01/28 04:48:01;;;;;;;12.45;8.75;;;1.40;99.90;;;-144.05;60.70;125687.94;5016506;28;20056;-82
2023/01/28 04:50:26;;;;;;;12.90;8.73;;;1.30;99.90;;;-144.05;60.45;125687.94;5016686;28;20033;-84
2023/01/28 04:52:52;;;;;;;13.20;9.65;;;1.30;99.90;;;-144.05;60.49;125687.94;5016629;28;20029;-86
2023/01/28 04:55:18;;;;;;;11.18;8.65;;;1.30;99.90;;;-144.05;59.82;125687.94;5016803;28;20076;-83
2023/01/28 04:57:49;;;;;;;12.90;9.38;;;1.30;99.90;;;-144.05;60.02;125687.94;5016249;28;20034;-84
2023/01/28 05:00:17;;;;;;;13.32;8.90;;;1.30;99.90;;;-144.05;60.09;125687.94;5016432;28;20128;-84
2023/01/28 05:02:43;;;;;;;12.30;9.68;;;1.30;99.90;;;-144.05;61.09;125687.94;5016749;28;20037;-82
2023/01/28 05:05:09;;;;;;;14.82;8.68;;;1.20;99.90;;;-144.05;60.55;125687.94;5016931;28;20083;-83
2023/01/28 05:07:36;;;;;;;16.00;10.30;;;1.20;99.90;;;-144.05;60.99;125687.94;5016473;28;20025;-81
2023/01/28 05:10:03;;;;;;;14.23;10.32;;;1.20;99.90;;;-144.05;61.08;125687.94;5016404;28;20029;-84
2023/01/28 05:12:31;;;;;;;15.43;10.52;;;1.20;99.90;;;-144.05;61.09;125687.94;5016748;28;20128;-85
2023/01/28 05:14:59;;;;;;;15.95;11.02;;;1.20;99.90;;;-144.05;61.33;125687.94;5017205;28;20595;-85
2023/01/28 05:17:29;;;;;;;16.75;10.93;;;1.20;99.90;;;-144.05;61.18;125687.94;5034398;28;20041;-86
2023/01/28 05:19:55;;;;;;;16.73;10.95;;;1.20;99.90;;;-144.05;61.41;125687.94;5016496;28;20430;-85
2023/01/28 05:22:24;;;;;;;16.17;12.25;;;1.10;99.90;;;-144.05;61.20;125687.94;5033752;28;20186;-84
2023/01/28 05:24:52;;;;;;;17.35;11.75;;;1.20;99.90;;;-144.05;61.28;125687.94;5017289;28;20457;-84
2023/01/28 05:27:18;;;;;;;18.33;11.73;;;1.20;99.90;;;-144.05;60.87;125687.94;5017396;28;20078;-84
2023/01/28 05:29:44;;;;;;;19.67;12.15;;;1.20;99.90;;;-144.05;61.47;125687.94;5017402;28;20524;-85
2023/01/28 05:32:14;;;;;;;18.60;12.70;;;1.20;99.90;;;-144.05;61.48;125687.94;5017294;28;20065;-85
2023/01/28 05:34:42;;;;;;;20.35;13.23;;;1.10;99.90;;;-144.05;61.67;125687.94;5016314;28;20037;-84
2023/01/28 05:37:08;;;;;;;21.02;12.93;;;1.10;99.90;;;-144.05;61.65;125687.94;5016167;28;20033;-86
2023/01/28 05:39:34;;;;;;;17.90;12.25;;;1.20;99.90;;;-144.05;61.33;125687.94;5045328;22;20048;-80
2023/01/28 05:41:59;;;;;;;18.27;12.85;;;1.10;99.90;;;-144.05;60.74;125687.94;5039485;28;20037;-80
2023/01/28 05:44:25;;;;;;;17.17;13.07;;;1.10;99.90;;;-144.05;60.47;125687.94;5044595;28;20032;-80
2023/01/28 05:46:51;;;;;;;19.98;12.68;;;1.10;99.90;;;-144.05;59.94;125687.94;5042023;28;20025;-80
2023/01/28 05:49:17;;;;;;;16.27;12.32;;;1.10;99.90;;;-144.05;59.71;125687.94;5058965;28;20021;-81
2023/01/28 05:51:43;;;;;;;16.83;11.75;;;1.10;99.90;;;-144.05;59.57;125687.94;5058471;28;20076;-80
2023/01/28 05:54:09;;;;;;;15.57;11.52;;;1.10;99.90;;;-144.05;60.13;125687.94;5058883;28;20029;-81
2023/01/28 05:56:35;;;;;;;17.30;12.07;;;1.10;99.90;;;-144.05;60.09;125687.94;5058854;28;20032;-81
2023/01/28 05:59:04;;;;;;;15.00;11.65;;;1.10;99.90;;;-144.05;60.15;125687.94;5040317;28;20033;-79
2023/01/28 06:01:31;;;;;;;15.57;12.23;;;1.00;99.90;;;-144.05;60.81;125687.94;5058452;28;20088;-80
2023/01/28 06:03:58;;;;;;;14.60;11.45;;;1.10;99.90;;;-144.05;60.84;125687.94;5057739;28;20100;-78
2023/01/28 06:06:24;;;;;;;16.80;11.63;;;1.00;99.90;;;-144.05;60.94;125687.94;5039115;28;20048;-79
2023/01/28 06:08:49;;;;;;;12.25;9.77;;;1.10;99.90;;;-144.05;59.91;125687.94;5038307;28;20171;-80
2023/01/28 06:11:15;;;;;;;14.30;9.43;;;1.00;99.90;;;-144.05;59.99;125687.94;5056827;28;20061;-78
2023/01/28 06:13:41;;;;;;;11.93;9.35;;;1.00;99.90;;;-144.05;59.67;125687.94;5038421;28;20021;-79
2023/01/28 06:16:07;;;;;;;13.90;9.18;;;1.00;99.90;;;-144.05;59.51;125687.94;5056472;28;20032;-81
2023/01/28 06:18:34;;;;;;;11.85;9.13;;;0.90;99.90;;;-144.05;59.48;125687.94;5056437;28;20484;-78
2023/01/28 06:21:00;;;;;;;11.95;8.45;;;0.90;99.90;;;-144.05;59.50;125687.94;5038505;28;20033;-78
2023/01/28 06:23:25;;;;;;;9.43;7.80;;;0.90;99.90;;;-144.05;59.43;125687.94;5057378;28;20409;-79
2023/01/28 06:25:56;;;;;;;11.18;8.00;;;0.90;99.90;;;-144.05;59.11;125687.94;5058004;28;20033;-79
2023/01/28 06:28:23;;;;;;;12.65;8.27;;;0.90;99.90;;;-144.05;59.07;125687.94;5056702;28;20054;-77
2023/01/28 06:30:51;;;;;;;10.43;8.10;;;0.80;99.90;;;-144.05;59.38;125687.94;5056478;28;20070;-79
2023/01/28 06:33:19;;;;;;;11.18;8.05;;;0.80;99.90;;;-144.05;59.34;125687.94;5038254;28;20029;-80
2023/01/28 06:35:46;;;;;;;12.07;9.13;;;0.80;99.90;;;-144.05;59.23;125687.94;5056447;28;20028;-78
2023/01/28 06:38:12;;;;;;;16.35;10.75;;;0.80;99.90;;;-144.05;59.24;125687.94;5056687;28;20185;-80
2023/01/28 06:40:38;;;;;;;17.58;11.40;;;0.80;99.90;;;-144.05;58.80;125687.94;5038246;28;20488;-79
2023/01/28 06:43:06;;;;;;;17.75;12.00;;;0.80;99.90;;;-144.05;59.31;125687.94;5038558;28;20060;-78
2023/01/28 06:45:32;;;;;;;14.68;10.23;;;0.80;99.90;;;-144.05;59.10;125687.94;5055467;28;20472;-79
2023/01/28 06:47:59;;;;;;;16.55;9.27;;;0.80;99.90;;;-144.05;58.84;125687.94;5038063;28;20052;-78
2023/01/28 06:50:25;;;;;;;12.15;9.27;;;0.80;99.90;;;-144.05;59.01;125687.94;5056046;28;20044;-78
2023/01/28 06:52:51;;;;;;;13.60;9.20;;;0.80;99.90;;;-144.05;59.40;125687.94;5055286;28;20043;-79
2023/01/28 06:55:16;;;;;;;13.52;9.07;;;0.70;99.90;;;-144.05;58.77;125687.94;5038306;28;20483;-79
2023/01/28 06:57:44;;;;;;;12.60;8.20;;;0.70;99.90;;;-144.05;59.20;125687.94;5037498;28;20136;-82
2023/01/28 07:00:14;;;;;;;11.80;8.05;;;0.70;99.90;;;-144.05;59.16;125687.94;5037781;28;20025;-79
2023/01/28 07:02:40;;;;;;;8.85;7.47;;;0.70;99.90;;;-144.05;59.02;125687.94;5058213;28;20040;-81
2023/01/28 07:05:07;;;;;;;9.38;7.72;;;0.70;99.90;;;-144.05;59.16;125687.94;5059832;28;20037;-80
2023/01/28 07:07:33;;;;;;;11.40;8.30;;;0.70;99.90;;;-144.05;59.19;125687.94;5042101;28;20025;-78
2023/01/28 07:09:59;;;;;;;11.18;6.55;;;0.60;99.90;;;-144.05;58.85;125687.94;5059938;28;20112;-78
2023/01/28 07:12:25;;;;;;;8.48;7.03;;;0.60;99.90;;;-144.05;58.48;125687.94;5060774;28;20025;-78
2023/01/28 07:14:50;;;;;;;8.10;7.07;;;0.60;99.90;;;-144.05;58.51;125687.94;5042034;28;20025;-79
2023/01/28 07:17:16;;;;;;;27.20;14.10;;;0.60;99.90;;;-144.05;58.71;125687.94;5042494;28;20029;-80
2023/01/28 07:19:43;;;;;;;8.75;7.38;;;0.60;99.90;;;-144.05;58.54;125687.94;5066382;28;20029;-79
2023/01/28 07:22:08;;;;;;;11.00;8.38;;;0.60;99.90;;;-144.05;59.23;125687.94;5060538;28;20036;-79
2023/01/28 07:24:34;;;;;;;9.15;6.80;;;0.50;99.90;;;-144.05;59.19;125687.94;5058732;28;20029;-80
2023/01/28 07:27:00;;;;;;;9.45;7.25;;;0.50;99.90;;;-144.05;59.10;125687.94;5059445;28;20025;-78
2023/01/28 07:29:26;;;;;;;13.98;9.82;;;0.50;99.90;;;-144.05;59.24;125687.94;5041047;28;20100;-79
2023/01/28 07:31:52;;;;;;;21.45;12.13;;;0.60;99.90;;;-144.05;59.00;125687.94;5058878;28;20044;-78
2023/01/28 07:34:17;;;;;;;13.27;8.20;;;0.60;99.90;;;-144.05;58.83;125687.94;5041378;28;20044;-77
2023/01/28 07:36:43;;;;;;;10.48;8.02;;;0.60;99.90;;;-144.05;58.68;125687.94;5041141;28;20028;-81
2023/01/28 07:39:09;;;;;;;14.15;9.15;;;0.60;99.90;;;-144.05;58.89;125687.94;5059821;28;20037;-79
2023/01/28 07:41:35;;;;;;;19.38;11.88;;;0.60;99.90;;;-144.05;59.04;125687.94;5059630;28;20098;-80
2023/01/28 07:44:01;;;;;;;15.30;9.38;;;0.60;99.90;;;-144.05;59.02;125687.94;5041023;28;20116;-79
2023/01/28 07:46:28;;;;;;;19.00;11.45;;;0.60;99.90;;;-144.05;58.70;125687.94;5061672;28;20136;-79
2023/01/28 07:48:53;;;;;;;9.60;7.43;;;0.60;99.90;;;-144.05;58.60;125687.94;5060289;28;20675;-79
2023/01/28 07:51:19;;;;;;;7.45;6.30;;;0.50;99.90;;;-144.05;58.56;125687.94;5042609;28;20036;-79
2023/01/28 07:53:45;;;;;;;8.65;6.10;;;0.50;99.90;;;-144.05;58.26;125687.94;5060818;28;20039;-80
2023/01/28 07:56:11;;;;;;;6.25;5.47;;;0.50;99.90;;;-144.05;58.14;125687.94;5043931;28;20033;-80
2023/01/28 07:58:37;;;;;;;7.20;5.10;;;0.50;99.90;;;-144.05;57.85;125687.94;5062244;28;20036;-78
2023/01/28 08:01:04;;;;;;;7.88;5.57;;;0.50;99.90;;;-144.05;58.43;125687.94;5060406;28;20028;-78
2023/01/28 08:03:30;;;;;;;7.47;5.78;;;0.50;99.90;;;-144.05;57.82;125687.94;5042382;28;20131;-79
2023/01/28 08:05:56;;;;;;;67.38;29.90;;;0.50;99.90;;;-144.05;57.77;125687.94;5059104;28;20045;-79
2023/01/28 08:08:28;;;;;;;150.65;55.53;;;0.60;99.90;;;-144.05;57.83;125687.94;5058337;28;20032;-80
2023/01/28 08:10:54;;;;;;;104.70;40.25;;;0.60;99.90;;;-144.05;58.01;125687.94;5059278;28;20341;-80
2023/01/28 08:13:20;;;;;;;23.70;11.95;;;0.70;99.90;;;-144.05;57.86;125687.94;5041154;28;20152;-81
2023/01/28 08:15:46;;;;;;;12.27;7.68;;;0.70;99.90;;;-144.05;57.66;125687.94;5040825;28;20037;-80
2023/01/28 08:18:16;;;;;;;15.00;9.05;;;0.80;99.90;;;-144.05;57.73;125687.94;5042179;28;20037;-80
2023/01/28 08:20:45;;;;;;;10.70;8.38;;;0.80;99.90;;;-144.05;57.80;125687.94;5059497;28;20052;-81
2023/01/28 08:23:18;;;;;;;10.77;7.85;;;0.80;99.90;;;-144.05;57.64;125687.94;5060585;28;20057;-79
2023/01/28 08:25:46;;;;;;;9.82;7.78;;;0.90;99.90;;;-144.05;57.27;125687.94;5060599;28;20028;-80
2023/01/28 08:28:14;;;;;;;62.28;23.13;;;0.90;99.90;;;-144.05;57.44;125687.94;5059852;28;20410;-80
2023/01/28 08:30:40;;;;;;;91.40;39.65;;;1.00;99.90;;;-144.05;57.90;125687.94;5060787;28;20107;-81
2023/01/28 08:33:11;;;;;;;13.60;9.48;;;1.00;99.90;;;-144.05;57.37;125687.94;5060202;28;20063;-80
2023/01/28 08:35:38;;;;;;;9.70;7.05;;;1.00;99.90;;;-144.05;57.11;125687.94;5058060;28;20060;-80
2023/01/28 08:38:07;;;;;;;15.85;8.73;;;1.10;99.90;;;-144.05;56.72;125687.94;5057511;28;20527;-78
2023/01/28 08:40:34;;;;;;;140.20;37.97;;;1.10;99.90;;;-144.05;56.44;125687.94;5070447;28;20047;-77
2023/01/28 08:43:00;;;;;;;13.80;8.70;;;1.10;99.90;;;-144.05;56.29;125687.94;5073690;28;20047;-77
2023/01/28 08:45:28;;;;;;;17.67;9.35;;;1.20;99.90;;;-144.05;56.29;125687.94;5054676;28;20117;-77
2023/01/28 08:48:04;;;;;;;19.88;9.48;;;1.20;99.90;;;-144.05;56.38;125687.94;5053648;28;20063;-78
2023/01/28 08:50:38;;;;;;;16.23;9.32;;;1.20;99.90;;;-144.05;56.52;125687.94;5049821;28;20029;-79
2023/01/28 08:53:10;;;;;;;10.85;8.05;;;1.20;99.90;;;-144.05;56.36;125687.94;5067071;28;20043;-78
2023/01/28 08:55:36;;;;;;;18.98;9.48;;;1.20;99.90;;;-144.05;56.77;125687.94;5060984;28;20139;-80
2023/01/28 08:58:07;;;;;;;17.38;10.57;;;1.30;99.90;;;-144.05;56.88;125687.94;5062114;28;20037;-79
2023/01/28 09:00:34;;;;;;;77.72;25.13;;;1.30;99.90;;;-144.05;56.67;125687.94;5063468;28;20083;-80
2023/01/28 09:03:01;;;;;;;29.23;12.23;;;1.30;99.90;;;-144.05;56.69;125687.94;5064145;28;20033;-79
2023/01/28 09:05:28;;;;;;;130.80;38.42;;;1.30;99.90;;;-144.05;55.65;125687.94;5046285;28;20079;-79
2023/01/28 09:07:54;;;;;;;54.35;20.30;;;1.30;99.90;;;-144.05;55.88;125687.94;5045913;28;20032;-78
2023/01/28 09:10:20;;;;;;;73.30;24.55;;;1.30;99.90;;;-144.05;55.68;125687.94;5046156;28;20050;-77
2023/01/28 09:12:47;;;;;;;94.95;29.83;;;1.20;99.90;;;-144.05;56.53;125687.94;5065612;28;20029;-80
2023/01/28 09:15:13;;;;;;;34.80;15.45;;;1.30;99.90;;;-144.05;56.42;125687.94;5064078;28;20053;-78
2023/01/28 09:17:39;;;;;;;131.20;37.90;;;1.30;99.90;;;-144.05;55.92;125687.94;5045795;28;20037;-79
2023/01/28 09:20:07;;;;;;;25.45;14.10;;;1.30;99.90;;;-144.05;56.19;125687.94;5062678;28;20063;-79
2023/01/28 09:22:33;;;;;;;89.90;30.48;;;1.20;99.90;;;-144.05;56.08;125687.94;5062254;28;20035;-79
2023/01/28 09:24:59;;;;;;;44.97;22.65;;;1.30;99.90;;;-144.05;55.87;125687.94;5056601;28;20534;-79
2023/01/28 09:27:25;;;;;;;41.78;22.70;;;1.30;99.90;;;-144.05;54.97;125687.94;5057347;28;20033;-79
2023/01/28 09:29:50;;;;;;;41.25;22.05;;;1.30;99.90;;;-144.05;55.40;125687.94;5039815;28;20029;-78
2023/01/28 09:32:16;;;;;;;60.25;25.10;;;1.30;99.90;;;-144.05;55.34;125687.94;5038392;28;20033;-77
2023/01/28 09:34:43;;;;;;;115.90;38.58;;;1.40;99.90;;;-144.05;55.62;125687.94;5037797;28;20033;-79
2023/01/28 09:37:10;;;;;;;60.35;27.40;;;1.40;99.90;;;-144.05;55.92;125687.94;5039925;28;20033;-75
2023/01/28 09:39:37;;;;;;;37.90;20.40;;;1.50;99.90;;;-144.05;55.79;125687.94;5036832;28;20040;-80
2023/01/28 09:42:50;;;;;;;26.95;15.95;;;1.40;99.90;;;-144.05;55.50;125687.94;5054644;28;20543;-78
2023/01/28 09:45:38;;;;;;;30.75;16.38;;;1.40;99.90;;;-144.05;55.64;125687.94;5055285;28;20067;-81
2023/01/28 09:48:15;;;;;;;20.83;12.93;;;1.40;99.90;;;-144.05;55.50;125687.94;5036851;28;20090;-82
2023/01/28 09:50:50;;;;;;;19.98;12.55;;;1.50;99.90;;;-144.05;55.36;125687.94;5055596;28;20047;-83
2023/01/28 09:53:28;;;;;;;16.17;11.05;;;1.40;99.90;;;-144.05;55.79;125687.94;5057496;28;20045;-78
2023/01/28 09:56:10;;;;;;;21.52;12.18;;;1.50;99.90;;;-144.05;56.23;125687.94;5056558;28;20029;-81
2023/01/28 09:58:36;;;;;;;24.73;12.75;;;1.40;99.90;;;-144.05;55.64;125687.94;5038355;28;20021;-83
2023/01/28 10:01:41;;;;;;;23.35;11.88;;;1.40;99.90;;;-144.05;55.92;125687.94;5037472;28;20032;-79
2023/01/28 10:04:54;;;;;;;18.27;11.30;;;1.30;99.90;;;-144.05;56.17;125687.94;5037673;28;20490;-78
2023/01/28 10:08:02;;;;;;;23.05;13.63;;;1.30;99.90;;;-144.05;55.50;125687.94;5054487;28;20113;-80
2023/01/28 10:10:54;;;;;;;16.75;9.95;;;1.20;99.90;;;-144.05;56.27;125687.94;5049585;28;20035;-78
2023/01/28 10:13:49;;;;;;;14.77;10.02;;;1.20;99.90;;;-144.05;55.72;125687.94;5037616;28;20032;-81
2023/01/28 10:16:47;;;;;;;13.18;8.95;;;1.20;99.90;;;-144.05;56.09;125687.94;5057436;28;20175;-84
2023/01/28 10:19:26;;;;;;;26.88;15.27;;;1.30;99.90;;;-144.05;55.51;125687.94;5039305;28;20040;-83
2023/01/28 10:22:21;;;;;;;25.45;15.95;;;1.40;99.90;;;-144.05;55.22;125687.94;5055488;28;20054;-78
2023/01/28 10:25:00;;;;;;;30.05;17.55;;;1.40;99.90;;;-144.05;55.07;125687.94;5054954;28;20024;-77
2023/01/28 10:27:31;;;;;;;29.95;17.30;;;1.50;99.90;;;-144.05;54.85;125687.94;5055690;28;20029;-79
2023/01/28 10:30:15;;;;;;;26.92;15.95;;;1.50;99.90;;;-144.05;54.76;125687.94;5063765;28;20032;-80
2023/01/28 10:33:03;;;;;;;33.80;18.05;;;1.60;99.90;;;-144.05;54.99;125687.94;5060283;28;20032;-78
2023/01/28 10:35:38;;;;;;;27.60;14.70;;;1.80;99.90;;;-144.05;54.82;125687.94;5063489;28;20060;-81
2023/01/28 10:38:13;;;;;;;21.05;13.05;;;1.80;99.90;;;-144.05;53.72;125687.94;5069504;28;20104;-79
2023/01/28 10:40:42;;;;;;;28.67;15.30;;;1.80;99.90;;;-144.05;53.09;125687.94;5049385;28;20041;-83
2023/01/28 10:43:09;;;;;;;31.02;16.00;;;1.90;99.90;;;-144.05;53.36;125687.94;5051267;28;20025;-81
2023/01/28 10:46:05;;;;;;;35.25;19.85;;;1.80;99.90;;;-144.05;53.68;125687.94;5049084;28;20041;-82
2023/01/28 10:48:46;;;;;;;32.85;18.30;;;1.80;99.90;;;-144.05;52.86;125687.94;5069163;28;20108;-80
2023/01/28 10:51:14;;;;;;;29.85;17.52;;;1.90;99.90;;;-144.05;53.19;125687.94;5066327;28;20163;-80
2023/01/28 10:53:45;;;;;;;34.60;18.33;;;1.90;99.90;;;-144.05;53.28;125687.94;5050790;28;20039;-81
2023/01/28 10:56:24;;;;;;;32.88;17.23;;;2.00;99.90;;;-144.05;52.82;125687.94;5050405;28;20055;-79
2023/01/28 10:59:16;;;;;;;37.20;19.50;;;2.20;99.90;;;-144.05;52.64;125687.94;5062375;28;20029;-80
2023/01/28 11:01:52;;;;;;;40.72;21.10;;;2.20;99.90;;;-144.05;52.24;125687.94;5063648;28;20489;-79
2023/01/28 11:04:32;;;;;;;31.50;16.80;;;2.30;99.90;;;-144.05;51.95;125687.94;5064897;28;20032;-80
2023/01/28 11:07:20;;;;;;;33.95;17.98;;;2.30;99.90;;;-144.05;52.26;125687.94;5063838;28;20031;-82
2023/01/28 11:09:51;;;;;;;32.53;18.73;;;2.20;99.90;;;-144.05;52.55;125687.94;5061695;28;20040;-78
2023/01/28 11:12:26;;;;;;;28.40;17.27;;;2.10;99.90;;;-144.05;52.61;125687.94;5063716;28;20025;-80
2023/01/28 11:15:00;;;;;;;27.33;16.85;;;2.00;99.90;;;-144.05;53.22;125687.94;5064221;28;20078;-79
2023/01/28 11:17:37;;;;;;;24.70;14.88;;;1.90;99.90;;;-144.05;53.14;125687.94;5064480;28;20121;-78
2023/01/28 11:20:42;;;;;;;23.00;13.43;;;1.90;99.90;;;-144.05;53.54;125687.94;5063519;28;20025;-78
2023/01/28 11:23:24;;;;;;;24.95;14.05;;;1.90;99.90;;;-144.05;52.94;125687.94;5058384;28;20041;-77
2023/01/28 11:26:08;;;;;;;23.13;13.00;;;1.90;99.90;;;-144.05;52.77;125687.94;5063474;28;20103;-80
2023/01/28 11:28:40;;;;;;;24.70;14.07;;;1.80;99.90;;;-144.05;52.91;125687.94;5068183;28;20072;-79